sensor_id;sensor_type;location;lat;lon;timestamp;P1;durP1;ratioP1;P2;durP2;ratioP2
36411;SDS011;22445;52.100;5.176;2023-05-29T00:00:07;13.02;;;2.95;;
36411;SDS011;22445;52.100;5.176;2023-05-29T00:02:34;14.68;;;3.35;;
36411;SDS011;22445;52.100;5.176;2023-05-29T00:04:59;16.73;;;3.17;;
36411;SDS011;22445;52.100;5.176;2023-05-29T00:07:29;24.83;;;3.45;;
36411;SDS011;22445;52.100;5.176;2023-05-29T00:09:55;10.40;;;2.85;;
36411;SDS011;22445;52.100;5.176;2023-05-29T00:12:22;16.52;;;3.38;;
36411;SDS011;22445;52.100;5.176;2023-05-29T00:14:48;23.27;;;3.28;;
36411;SDS011;22445;52.100;5.176;2023-05-29T00:17:14;12.77;;;3.33;;
36411;SDS011;22445;52.100;5.176;2023-05-29T00:19:41;11.73;;;2.63;;
36411;SDS011;22445;52.100;5.176;2023-05-29T00:22:08;13.52;;;3.28;;
36411;SDS011;22445;52.100;5.176;2023-05-29T00:24:34;19.33;;;3.88;;
36411;SDS011;22445;52.100;5.176;2023-05-29T00:27:00;11.65;;;2.45;;
36411;SDS011;22445;52.100;5.176;2023-05-29T00:29:26;13.18;;;3.53;;
36411;SDS011;22445;52.100;5.176;2023-05-29T00:31:52;15.95;;;2.53;;
36411;SDS011;22445;52.100;5.176;2023-05-29T00:34:21;15.55;;;3.63;;
36411;SDS011;22445;52.100;5.176;2023-05-29T00:36:48;13.90;;;2.90;;
36411;SDS011;22445;52.100;5.176;2023-05-29T00:39:14;13.68;;;2.67;;
36411;SDS011;22445;52.100;5.176;2023-05-29T00:41:40;14.95;;;2.95;;
36411;SDS011;22445;52.100;5.176;2023-05-29T00:44:06;10.73;;;2.97;;
36411;SDS011;22445;52.100;5.176;2023-05-29T00:46:32;15.70;;;3.15;;
36411;SDS011;22445;52.100;5.176;2023-05-29T00:48:58;20.83;;;3.22;;
36411;SDS011;22445;52.100;5.176;2023-05-29T00:51:25;13.15;;;3.00;;
36411;SDS011;22445;52.100;5.176;2023-05-29T00:53:51;15.93;;;2.38;;
36411;SDS011;22445;52.100;5.176;2023-05-29T00:56:18;17.08;;;3.13;;
36411;SDS011;22445;52.100;5.176;2023-05-29T00:58:46;15.55;;;2.33;;
36411;SDS011;22445;52.100;5.176;2023-05-29T01:01:13;14.80;;;2.83;;
36411;SDS011;22445;52.100;5.176;2023-05-29T01:03:40;14.18;;;3.08;;
36411;SDS011;22445;52.100;5.176;2023-05-29T01:06:08;11.30;;;3.08;;
36411;SDS011;22445;52.100;5.176;2023-05-29T01:08:35;8.52;;;3.00;;
36411;SDS011;22445;52.100;5.176;2023-05-29T01:11:04;13.35;;;2.70;;
36411;SDS011;22445;52.100;5.176;2023-05-29T01:13:50;20.27;;;3.13;;
36411;SDS011;22445;52.100;5.176;2023-05-29T01:19:25;13.32;;;2.20;;
36411;SDS011;22445;52.100;5.176;2023-05-29T01:22:13;14.35;;;2.38;;
36411;SDS011;22445;52.100;5.176;2023-05-29T01:28:14;18.65;;;2.90;;
36411;SDS011;22445;52.100;5.176;2023-05-29T01:30:41;18.83;;;2.92;;
36411;SDS011;22445;52.100;5.176;2023-05-29T01:33:06;14.60;;;2.10;;
36411;SDS011;22445;52.100;5.176;2023-05-29T01:35:33;12.93;;;2.13;;
36411;SDS011;22445;52.100;5.176;2023-05-29T01:37:59;7.10;;;2.35;;
36411;SDS011;22445;52.100;5.176;2023-05-29T01:40:25;11.95;;;2.45;;
36411;SDS011;22445;52.100;5.176;2023-05-29T01:42:52;10.18;;;2.17;;
36411;SDS011;22445;52.100;5.176;2023-05-29T01:45:17;18.50;;;3.72;;
36411;SDS011;22445;52.100;5.176;2023-05-29T01:47:43;16.88;;;3.13;;
36411;SDS011;22445;52.100;5.176;2023-05-29T01:50:09;9.57;;;2.30;;
36411;SDS011;22445;52.100;5.176;2023-05-29T01:52:36;18.90;;;2.85;;
36411;SDS011;22445;52.100;5.176;2023-05-29T01:55:01;19.77;;;2.42;;
36411;SDS011;22445;52.100;5.176;2023-05-29T01:57:27;12.13;;;2.35;;
36411;SDS011;22445;52.100;5.176;2023-05-29T01:59:55;14.48;;;2.85;;
36411;SDS011;22445;52.100;5.176;2023-05-29T02:02:21;13.80;;;1.85;;
36411;SDS011;22445;52.100;5.176;2023-05-29T02:04:50;11.30;;;2.28;;
36411;SDS011;22445;52.100;5.176;2023-05-29T02:07:17;16.73;;;2.88;;
36411;SDS011;22445;52.100;5.176;2023-05-29T02:09:42;11.00;;;2.30;;
36411;SDS011;22445;52.100;5.176;2023-05-29T02:12:08;10.85;;;2.25;;
36411;SDS011;22445;52.100;5.176;2023-05-29T02:14:34;11.82;;;1.75;;
36411;SDS011;22445;52.100;5.176;2023-05-29T02:16:59;15.00;;;3.13;;
36411;SDS011;22445;52.100;5.176;2023-05-29T02:19:26;11.68;;;2.28;;
36411;SDS011;22445;52.100;5.176;2023-05-29T02:21:52;18.02;;;2.47;;
36411;SDS011;22445;52.100;5.176;2023-05-29T02:24:18;13.43;;;2.60;;
36411;SDS011;22445;52.100;5.176;2023-05-29T02:26:45;15.20;;;3.15;;
36411;SDS011;22445;52.100;5.176;2023-05-29T02:29:13;15.95;;;2.53;;
36411;SDS011;22445;52.100;5.176;2023-05-29T02:31:38;18.02;;;2.95;;
36411;SDS011;22445;52.100;5.176;2023-05-29T02:34:04;11.20;;;2.30;;
36411;SDS011;22445;52.100;5.176;2023-05-29T02:36:30;13.07;;;2.28;;
36411;SDS011;22445;52.100;5.176;2023-05-29T02:38:55;15.77;;;2.13;;
36411;SDS011;22445;52.100;5.176;2023-05-29T02:41:23;15.52;;;2.67;;
36411;SDS011;22445;52.100;5.176;2023-05-29T02:43:49;15.00;;;3.50;;
36411;SDS011;22445;52.100;5.176;2023-05-29T02:46:15;14.90;;;2.80;;
36411;SDS011;22445;52.100;5.176;2023-05-29T02:48:41;16.20;;;2.58;;
36411;SDS011;22445;52.100;5.176;2023-05-29T02:51:06;13.15;;;2.22;;
36411;SDS011;22445;52.100;5.176;2023-05-29T02:53:32;16.40;;;2.97;;
36411;SDS011;22445;52.100;5.176;2023-05-29T02:55:57;15.18;;;2.63;;
36411;SDS011;22445;52.100;5.176;2023-05-29T02:58:23;15.27;;;2.65;;
36411;SDS011;22445;52.100;5.176;2023-05-29T03:00:49;15.43;;;2.78;;
36411;SDS011;22445;52.100;5.176;2023-05-29T03:03:15;16.77;;;3.63;;
36411;SDS011;22445;52.100;5.176;2023-05-29T03:05:41;11.85;;;2.00;;
36411;SDS011;22445;52.100;5.176;2023-05-29T03:08:08;12.57;;;2.33;;
36411;SDS011;22445;52.100;5.176;2023-05-29T03:10:35;10.18;;;1.92;;
36411;SDS011;22445;52.100;5.176;2023-05-29T03:13:01;13.48;;;2.10;;
36411;SDS011;22445;52.100;5.176;2023-05-29T03:15:26;18.55;;;2.72;;
36411;SDS011;22445;52.100;5.176;2023-05-29T03:17:52;15.27;;;2.80;;
36411;SDS011;22445;52.100;5.176;2023-05-29T03:20:17;8.02;;;2.85;;
36411;SDS011;22445;52.100;5.176;2023-05-29T03:22:43;12.52;;;3.72;;
36411;SDS011;22445;52.100;5.176;2023-05-29T03:25:09;19.60;;;3.05;;
36411;SDS011;22445;52.100;5.176;2023-05-29T03:27:35;11.85;;;2.60;;
36411;SDS011;22445;52.100;5.176;2023-05-29T03:30:00;9.48;;;2.47;;
36411;SDS011;22445;52.100;5.176;2023-05-29T03:32:26;13.48;;;2.15;;
36411;SDS011;22445;52.100;5.176;2023-05-29T03:34:52;13.63;;;2.50;;
36411;SDS011;22445;52.100;5.176;2023-05-29T03:37:17;14.27;;;2.90;;
36411;SDS011;22445;52.100;5.176;2023-05-29T03:39:43;14.27;;;3.20;;
36411;SDS011;22445;52.100;5.176;2023-05-29T03:42:08;11.57;;;2.17;;
36411;SDS011;22445;52.100;5.176;2023-05-29T03:44:35;13.70;;;2.67;;
36411;SDS011;22445;52.100;5.176;2023-05-29T03:47:01;12.85;;;2.60;;
36411;SDS011;22445;52.100;5.176;2023-05-29T03:49:26;18.63;;;3.35;;
36411;SDS011;22445;52.100;5.176;2023-05-29T03:51:52;12.65;;;2.33;;
36411;SDS011;22445;52.100;5.176;2023-05-29T03:54:17;15.85;;;2.42;;
36411;SDS011;22445;52.100;5.176;2023-05-29T03:56:43;17.50;;;2.75;;
36411;SDS011;22445;52.100;5.176;2023-05-29T03:59:09;11.18;;;2.15;;
36411;SDS011;22445;52.100;5.176;2023-05-29T04:01:34;13.45;;;3.25;;
36411;SDS011;22445;52.100;5.176;2023-05-29T04:04:00;14.65;;;2.30;;
36411;SDS011;22445;52.100;5.176;2023-05-29T04:06:26;17.02;;;2.72;;
36411;SDS011;22445;52.100;5.176;2023-05-29T04:08:51;15.93;;;2.38;;
36411;SDS011;22445;52.100;5.176;2023-05-29T04:11:17;12.35;;;2.47;;
36411;SDS011;22445;52.100;5.176;2023-05-29T04:13:46;14.25;;;2.67;;
36411;SDS011;22445;52.100;5.176;2023-05-29T04:16:12;10.68;;;2.55;;
36411;SDS011;22445;52.100;5.176;2023-05-29T04:18:38;14.60;;;2.33;;
36411;SDS011;22445;52.100;5.176;2023-05-29T04:21:04;10.45;;;2.45;;
36411;SDS011;22445;52.100;5.176;2023-05-29T04:23:30;13.30;;;2.25;;
36411;SDS011;22445;52.100;5.176;2023-05-29T04:25:56;14.77;;;2.72;;
36411;SDS011;22445;52.100;5.176;2023-05-29T04:28:22;15.68;;;3.20;;
36411;SDS011;22445;52.100;5.176;2023-05-29T04:30:48;11.35;;;2.03;;
36411;SDS011;22445;52.100;5.176;2023-05-29T04:33:14;11.98;;;2.40;;
36411;SDS011;22445;52.100;5.176;2023-05-29T04:35:40;14.93;;;2.33;;
36411;SDS011;22445;52.100;5.176;2023-05-29T04:38:09;16.65;;;2.67;;
36411;SDS011;22445;52.100;5.176;2023-05-29T04:40:35;10.32;;;1.98;;
36411;SDS011;22445;52.100;5.176;2023-05-29T04:43:02;14.73;;;2.40;;
36411;SDS011;22445;52.100;5.176;2023-05-29T04:45:30;8.80;;;2.40;;
36411;SDS011;22445;52.100;5.176;2023-05-29T04:47:55;15.60;;;2.22;;
36411;SDS011;22445;52.100;5.176;2023-05-29T04:50:21;13.75;;;1.95;;
36411;SDS011;22445;52.100;5.176;2023-05-29T04:52:48;12.82;;;2.58;;
36411;SDS011;22445;52.100;5.176;2023-05-29T04:55:13;13.23;;;2.45;;
36411;SDS011;22445;52.100;5.176;2023-05-29T04:57:39;11.65;;;2.58;;
36411;SDS011;22445;52.100;5.176;2023-05-29T05:00:06;9.68;;;2.35;;
36411;SDS011;22445;52.100;5.176;2023-05-29T05:02:36;15.82;;;2.97;;
36411;SDS011;22445;52.100;5.176;2023-05-29T05:05:02;12.20;;;2.17;;
36411;SDS011;22445;52.100;5.176;2023-05-29T05:07:28;9.57;;;2.47;;
36411;SDS011;22445;52.100;5.176;2023-05-29T05:09:54;9.73;;;2.00;;
36411;SDS011;22445;52.100;5.176;2023-05-29T05:12:19;13.95;;;2.15;;
36411;SDS011;22445;52.100;5.176;2023-05-29T05:14:45;13.98;;;2.67;;
36411;SDS011;22445;52.100;5.176;2023-05-29T05:17:10;9.77;;;2.75;;
36411;SDS011;22445;52.100;5.176;2023-05-29T05:19:36;12.68;;;2.78;;
36411;SDS011;22445;52.100;5.176;2023-05-29T05:22:01;12.73;;;3.05;;
36411;SDS011;22445;52.100;5.176;2023-05-29T05:24:27;16.92;;;2.58;;
36411;SDS011;22445;52.100;5.176;2023-05-29T05:26:52;10.88;;;2.25;;
36411;SDS011;22445;52.100;5.176;2023-05-29T05:29:18;14.82;;;2.67;;
36411;SDS011;22445;52.100;5.176;2023-05-29T05:31:44;9.80;;;2.45;;
36411;SDS011;22445;52.100;5.176;2023-05-29T05:34:10;8.73;;;2.10;;
36411;SDS011;22445;52.100;5.176;2023-05-29T05:36:36;12.10;;;2.38;;
36411;SDS011;22445;52.100;5.176;2023-05-29T05:39:01;11.57;;;2.35;;
36411;SDS011;22445;52.100;5.176;2023-05-29T05:41:27;10.80;;;2.10;;
36411;SDS011;22445;52.100;5.176;2023-05-29T05:43:53;9.77;;;2.50;;
36411;SDS011;22445;52.100;5.176;2023-05-29T05:46:18;11.93;;;2.33;;
36411;SDS011;22445;52.100;5.176;2023-05-29T05:48:44;19.25;;;3.03;;
36411;SDS011;22445;52.100;5.176;2023-05-29T05:51:09;10.57;;;2.63;;
36411;SDS011;22445;52.100;5.176;2023-05-29T05:53:36;14.45;;;2.58;;
36411;SDS011;22445;52.100;5.176;2023-05-29T05:56:02;13.98;;;2.50;;
36411;SDS011;22445;52.100;5.176;2023-05-29T05:58:27;15.05;;;2.15;;
36411;SDS011;22445;52.100;5.176;2023-05-29T06:00:53;14.07;;;2.30;;
36411;SDS011;22445;52.100;5.176;2023-05-29T06:03:18;13.65;;;2.20;;
36411;SDS011;22445;52.100;5.176;2023-05-29T06:05:44;15.52;;;2.13;;
36411;SDS011;22445;52.100;5.176;2023-05-29T06:08:09;13.27;;;3.67;;
36411;SDS011;22445;52.100;5.176;2023-05-29T06:10:35;8.85;;;2.10;;
36411;SDS011;22445;52.100;5.176;2023-05-29T06:13:01;10.95;;;3.00;;
36411;SDS011;22445;52.100;5.176;2023-05-29T06:15:26;12.48;;;2.35;;
36411;SDS011;22445;52.100;5.176;2023-05-29T06:17:52;11.77;;;2.22;;
36411;SDS011;22445;52.100;5.176;2023-05-29T06:20:20;12.75;;;2.60;;
36411;SDS011;22445;52.100;5.176;2023-05-29T06:22:46;9.30;;;2.17;;
36411;SDS011;22445;52.100;5.176;2023-05-29T06:25:15;11.60;;;2.33;;
36411;SDS011;22445;52.100;5.176;2023-05-29T06:27:42;9.05;;;2.25;;
36411;SDS011;22445;52.100;5.176;2023-05-29T06:30:08;11.20;;;2.03;;
36411;SDS011;22445;52.100;5.176;2023-05-29T06:32:33;10.50;;;2.30;;
36411;SDS011;22445;52.100;5.176;2023-05-29T06:34:59;13.10;;;2.47;;
36411;SDS011;22445;52.100;5.176;2023-05-29T06:37:25;8.85;;;2.47;;
36411;SDS011;22445;52.100;5.176;2023-05-29T06:39:50;7.88;;;2.47;;
36411;SDS011;22445;52.100;5.176;2023-05-29T06:42:16;10.02;;;2.00;;
36411;SDS011;22445;52.100;5.176;2023-05-29T06:44:42;9.90;;;2.35;;
36411;SDS011;22445;52.100;5.176;2023-05-29T06:47:07;10.07;;;2.05;;
36411;SDS011;22445;52.100;5.176;2023-05-29T06:49:32;11.13;;;2.20;;
36411;SDS011;22445;52.100;5.176;2023-05-29T06:51:58;12.52;;;2.15;;
36411;SDS011;22445;52.100;5.176;2023-05-29T06:54:24;11.45;;;2.25;;
36411;SDS011;22445;52.100;5.176;2023-05-29T06:56:49;12.70;;;1.73;;
36411;SDS011;22445;52.100;5.176;2023-05-29T06:59:15;7.65;;;2.17;;
36411;SDS011;22445;52.100;5.176;2023-05-29T07:01:41;9.93;;;2.25;;
36411;SDS011;22445;52.100;5.176;2023-05-29T07:04:07;7.43;;;1.88;;
36411;SDS011;22445;52.100;5.176;2023-05-29T07:06:32;8.90;;;2.08;;
36411;SDS011;22445;52.100;5.176;2023-05-29T07:08:59;12.30;;;2.22;;
36411;SDS011;22445;52.100;5.176;2023-05-29T07:11:25;10.73;;;1.90;;
36411;SDS011;22445;52.100;5.176;2023-05-29T07:13:52;10.63;;;1.98;;
36411;SDS011;22445;52.100;5.176;2023-05-29T07:16:18;12.57;;;2.28;;
36411;SDS011;22445;52.100;5.176;2023-05-29T07:18:44;13.38;;;2.22;;
36411;SDS011;22445;52.100;5.176;2023-05-29T07:21:10;10.77;;;2.70;;
36411;SDS011;22445;52.100;5.176;2023-05-29T07:23:35;6.78;;;1.80;;
36411;SDS011;22445;52.100;5.176;2023-05-29T07:26:01;8.93;;;1.83;;
36411;SDS011;22445;52.100;5.176;2023-05-29T07:28:27;11.10;;;2.17;;
36411;SDS011;22445;52.100;5.176;2023-05-29T07:30:55;12.38;;;2.80;;
36411;SDS011;22445;52.100;5.176;2023-05-29T07:33:21;10.75;;;2.03;;
36411;SDS011;22445;52.100;5.176;2023-05-29T07:35:47;11.52;;;2.33;;
36411;SDS011;22445;52.100;5.176;2023-05-29T07:38:13;10.98;;;2.42;;
36411;SDS011;22445;52.100;5.176;2023-05-29T07:40:39;10.75;;;2.15;;
36411;SDS011;22445;52.100;5.176;2023-05-29T07:43:04;7.43;;;2.28;;
36411;SDS011;22445;52.100;5.176;2023-05-29T07:45:30;14.00;;;1.98;;
36411;SDS011;22445;52.100;5.176;2023-05-29T07:47:55;13.02;;;1.80;;
36411;SDS011;22445;52.100;5.176;2023-05-29T07:50:21;9.88;;;1.98;;
36411;SDS011;22445;52.100;5.176;2023-05-29T07:52:46;10.20;;;2.03;;
36411;SDS011;22445;52.100;5.176;2023-05-29T07:55:12;9.45;;;1.80;;
36411;SDS011;22445;52.100;5.176;2023-05-29T07:57:37;7.22;;;1.90;;
36411;SDS011;22445;52.100;5.176;2023-05-29T08:00:04;9.27;;;2.00;;
36411;SDS011;22445;52.100;5.176;2023-05-29T08:02:31;7.28;;;1.48;;
36411;SDS011;22445;52.100;5.176;2023-05-29T08:04:56;9.60;;;2.13;;
36411;SDS011;22445;52.100;5.176;2023-05-29T08:07:25;6.70;;;1.73;;
36411;SDS011;22445;52.100;5.176;2023-05-29T08:09:52;7.72;;;1.70;;
36411;SDS011;22445;52.100;5.176;2023-05-29T08:12:17;8.75;;;2.47;;
36411;SDS011;22445;52.100;5.176;2023-05-29T08:14:43;5.95;;;1.52;;
36411;SDS011;22445;52.100;5.176;2023-05-29T08:17:08;7.35;;;1.85;;
36411;SDS011;22445;52.100;5.176;2023-05-29T08:19:34;8.38;;;1.90;;
36411;SDS011;22445;52.100;5.176;2023-05-29T08:22:00;10.65;;;1.90;;
36411;SDS011;22445;52.100;5.176;2023-05-29T08:24:25;5.65;;;1.52;;
36411;SDS011;22445;52.100;5.176;2023-05-29T08:26:53;6.60;;;1.70;;
36411;SDS011;22445;52.100;5.176;2023-05-29T08:29:18;6.80;;;2.22;;
36411;SDS011;22445;52.100;5.176;2023-05-29T08:31:44;7.28;;;1.85;;
36411;SDS011;22445;52.100;5.176;2023-05-29T08:34:10;7.25;;;2.00;;
36411;SDS011;22445;52.100;5.176;2023-05-29T08:36:35;5.85;;;1.80;;
36411;SDS011;22445;52.100;5.176;2023-05-29T08:39:01;6.88;;;1.80;;
36411;SDS011;22445;52.100;5.176;2023-05-29T08:41:28;6.78;;;2.15;;
36411;SDS011;22445;52.100;5.176;2023-05-29T08:44:14;5.43;;;2.10;;
36411;SDS011;22445;52.100;5.176;2023-05-29T08:46:43;9.48;;;1.85;;
36411;SDS011;22445;52.100;5.176;2023-05-29T08:49:08;5.10;;;1.77;;
36411;SDS011;22445;52.100;5.176;2023-05-29T08:51:36;4.53;;;1.77;;
36411;SDS011;22445;52.100;5.176;2023-05-29T08:54:03;5.35;;;2.05;;
36411;SDS011;22445;52.100;5.176;2023-05-29T08:56:29;7.32;;;2.38;;
36411;SDS011;22445;52.100;5.176;2023-05-29T08:58:54;6.78;;;2.00;;
36411;SDS011;22445;52.100;5.176;2023-05-29T09:01:21;6.35;;;2.20;;
36411;SDS011;22445;52.100;5.176;2023-05-29T09:03:47;4.53;;;1.45;;
36411;SDS011;22445;52.100;5.176;2023-05-29T09:06:12;6.63;;;1.80;;
36411;SDS011;22445;52.100;5.176;2023-05-29T09:08:38;6.18;;;2.00;;
36411;SDS011;22445;52.100;5.176;2023-05-29T09:11:03;6.55;;;2.20;;
36411;SDS011;22445;52.100;5.176;2023-05-29T09:13:30;5.43;;;1.75;;
36411;SDS011;22445;52.100;5.176;2023-05-29T09:16:00;7.47;;;1.63;;
36411;SDS011;22445;52.100;5.176;2023-05-29T09:18:28;4.90;;;1.60;;
36411;SDS011;22445;52.100;5.176;2023-05-29T09:20:57;7.95;;;1.83;;
36411;SDS011;22445;52.100;5.176;2023-05-29T09:23:24;8.15;;;1.88;;
36411;SDS011;22445;52.100;5.176;2023-05-29T09:25:51;7.47;;;1.77;;
36411;SDS011;22445;52.100;5.176;2023-05-29T09:28:18;7.82;;;2.25;;
36411;SDS011;22445;52.100;5.176;2023-05-29T09:30:44;6.03;;;1.85;;
36411;SDS011;22445;52.100;5.176;2023-05-29T09:33:12;5.18;;;1.60;;
36411;SDS011;22445;52.100;5.176;2023-05-29T09:38:25;6.47;;;1.73;;
36411;SDS011;22445;52.100;5.176;2023-05-29T09:40:51;8.45;;;2.03;;
36411;SDS011;22445;52.100;5.176;2023-05-29T09:43:20;6.72;;;2.00;;
36411;SDS011;22445;52.100;5.176;2023-05-29T09:45:49;8.35;;;1.92;;
36411;SDS011;22445;52.100;5.176;2023-05-29T09:48:16;5.57;;;1.95;;
36411;SDS011;22445;52.100;5.176;2023-05-29T09:50:43;4.70;;;1.80;;
36411;SDS011;22445;52.100;5.176;2023-05-29T09:53:15;6.88;;;1.60;;
36411;SDS011;22445;52.100;5.176;2023-05-29T09:55:52;9.55;;;1.67;;
36411;SDS011;22445;52.100;5.176;2023-05-29T09:58:22;7.97;;;2.53;;
36411;SDS011;22445;52.100;5.176;2023-05-29T10:00:48;7.28;;;2.25;;
36411;SDS011;22445;52.100;5.176;2023-05-29T10:03:16;4.05;;;1.45;;
36411;SDS011;22445;52.100;5.176;2023-05-29T10:05:43;6.75;;;1.65;;
36411;SDS011;22445;52.100;5.176;2023-05-29T10:08:13;7.32;;;2.03;;
36411;SDS011;22445;52.100;5.176;2023-05-29T10:10:40;5.88;;;2.00;;
36411;SDS011;22445;52.100;5.176;2023-05-29T10:13:11;7.35;;;1.98;;
36411;SDS011;22445;52.100;5.176;2023-05-29T10:15:37;6.32;;;1.98;;
36411;SDS011;22445;52.100;5.176;2023-05-29T10:18:05;7.43;;;1.70;;
36411;SDS011;22445;52.100;5.176;2023-05-29T10:20:34;8.07;;;2.40;;
36411;SDS011;22445;52.100;5.176;2023-05-29T10:23:01;6.07;;;1.88;;
36411;SDS011;22445;52.100;5.176;2023-05-29T10:25:29;6.22;;;1.98;;
36411;SDS011;22445;52.100;5.176;2023-05-29T10:27:56;4.03;;;1.52;;
36411;SDS011;22445;52.100;5.176;2023-05-29T10:36:23;6.75;;;1.92;;
36411;SDS011;22445;52.100;5.176;2023-05-29T10:38:51;5.53;;;2.10;;
36411;SDS011;22445;52.100;5.176;2023-05-29T10:41:29;5.50;;;1.85;;
36411;SDS011;22445;52.100;5.176;2023-05-29T10:44:01;6.78;;;1.70;;
36411;SDS011;22445;52.100;5.176;2023-05-29T10:49:50;4.47;;;1.70;;
36411;SDS011;22445;52.100;5.176;2023-05-29T10:52:18;4.72;;;1.90;;
36411;SDS011;22445;52.100;5.176;2023-05-29T10:54:50;6.65;;;1.85;;
36411;SDS011;22445;52.100;5.176;2023-05-29T10:57:20;7.82;;;2.28;;
36411;SDS011;22445;52.100;5.176;2023-05-29T10:59:46;8.02;;;2.35;;
36411;SDS011;22445;52.100;5.176;2023-05-29T11:02:16;11.93;;;2.55;;
36411;SDS011;22445;52.100;5.176;2023-05-29T11:04:42;6.90;;;2.35;;
36411;SDS011;22445;52.100;5.176;2023-05-29T11:07:09;5.70;;;2.00;;
36411;SDS011;22445;52.100;5.176;2023-05-29T11:13:33;8.55;;;2.17;;
36411;SDS011;22445;52.100;5.176;2023-05-29T11:16:42;6.28;;;2.10;;
36411;SDS011;22445;52.100;5.176;2023-05-29T11:19:12;6.97;;;2.30;;
36411;SDS011;22445;52.100;5.176;2023-05-29T11:24:49;6.10;;;1.90;;
36411;SDS011;22445;52.100;5.176;2023-05-29T11:27:16;10.65;;;2.60;;
36411;SDS011;22445;52.100;5.176;2023-05-29T11:29:42;8.75;;;2.28;;
36411;SDS011;22445;52.100;5.176;2023-05-29T11:32:10;8.25;;;2.25;;
36411;SDS011;22445;52.100;5.176;2023-05-29T11:34:40;8.45;;;2.67;;
36411;SDS011;22445;52.100;5.176;2023-05-29T11:37:06;6.90;;;2.25;;
36411;SDS011;22445;52.100;5.176;2023-05-29T11:39:35;8.07;;;2.55;;
36411;SDS011;22445;52.100;5.176;2023-05-29T11:42:01;6.68;;;2.50;;
36411;SDS011;22445;52.100;5.176;2023-05-29T11:44:27;6.60;;;2.20;;
36411;SDS011;22445;52.100;5.176;2023-05-29T11:47:02;6.72;;;1.90;;
36411;SDS011;22445;52.100;5.176;2023-05-29T11:49:29;6.18;;;2.38;;
36411;SDS011;22445;52.100;5.176;2023-05-29T11:52:06;6.75;;;2.42;;
36411;SDS011;22445;52.100;5.176;2023-05-29T11:54:33;7.35;;;2.28;;
36411;SDS011;22445;52.100;5.176;2023-05-29T11:56:59;5.95;;;2.20;;
36411;SDS011;22445;52.100;5.176;2023-05-29T11:59:28;9.43;;;2.50;;
36411;SDS011;22445;52.100;5.176;2023-05-29T12:01:56;6.80;;;2.65;;
36411;SDS011;22445;52.100;5.176;2023-05-29T12:04:21;9.57;;;2.70;;
36411;SDS011;22445;52.100;5.176;2023-05-29T12:06:47;8.73;;;2.85;;
36411;SDS011;22445;52.100;5.176;2023-05-29T12:09:26;9.00;;;2.67;;
36411;SDS011;22445;52.100;5.176;2023-05-29T12:11:53;5.32;;;2.15;;
36411;SDS011;22445;52.100;5.176;2023-05-29T12:14:19;7.20;;;2.45;;
36411;SDS011;22445;52.100;5.176;2023-05-29T12:16:45;6.57;;;2.30;;
36411;SDS011;22445;52.100;5.176;2023-05-29T12:19:11;7.05;;;2.58;;
36411;SDS011;22445;52.100;5.176;2023-05-29T12:21:36;6.70;;;2.40;;
36411;SDS011;22445;52.100;5.176;2023-05-29T12:24:07;7.15;;;2.05;;
36411;SDS011;22445;52.100;5.176;2023-05-29T12:26:32;7.57;;;2.55;;
36411;SDS011;22445;52.100;5.176;2023-05-29T12:28:58;6.93;;;2.30;;
36411;SDS011;22445;52.100;5.176;2023-05-29T12:31:28;8.48;;;2.35;;
36411;SDS011;22445;52.100;5.176;2023-05-29T12:33:59;10.50;;;2.28;;
36411;SDS011;22445;52.100;5.176;2023-05-29T12:36:27;10.88;;;3.00;;
36411;SDS011;22445;52.100;5.176;2023-05-29T12:38:53;8.57;;;2.05;;
36411;SDS011;22445;52.100;5.176;2023-05-29T12:41:23;9.23;;;2.33;;
36411;SDS011;22445;52.100;5.176;2023-05-29T12:43:53;8.57;;;2.63;;
36411;SDS011;22445;52.100;5.176;2023-05-29T12:46:23;7.28;;;2.50;;
36411;SDS011;22445;52.100;5.176;2023-05-29T12:48:49;10.70;;;2.65;;
36411;SDS011;22445;52.100;5.176;2023-05-29T12:51:22;6.78;;;2.50;;
36411;SDS011;22445;52.100;5.176;2023-05-29T12:53:48;9.77;;;2.70;;
36411;SDS011;22445;52.100;5.176;2023-05-29T12:56:14;7.28;;;2.75;;
36411;SDS011;22445;52.100;5.176;2023-05-29T12:58:40;8.52;;;2.70;;
36411;SDS011;22445;52.100;5.176;2023-05-29T13:01:05;5.75;;;2.42;;
36411;SDS011;22445;52.100;5.176;2023-05-29T13:03:37;6.90;;;2.25;;
36411;SDS011;22445;52.100;5.176;2023-05-29T13:06:03;6.28;;;2.70;;
36411;SDS011;22445;52.100;5.176;2023-05-29T13:08:29;7.70;;;2.35;;
36411;SDS011;22445;52.100;5.176;2023-05-29T13:10:54;10.10;;;2.35;;
36411;SDS011;22445;52.100;5.176;2023-05-29T13:13:20;8.25;;;2.83;;
36411;SDS011;22445;52.100;5.176;2023-05-29T13:15:47;4.50;;;1.92;;
36411;SDS011;22445;52.100;5.176;2023-05-29T13:18:12;8.00;;;2.60;;
36411;SDS011;22445;52.100;5.176;2023-05-29T13:20:38;10.63;;;2.47;;
36411;SDS011;22445;52.100;5.176;2023-05-29T13:23:03;8.23;;;2.70;;
36411;SDS011;22445;52.100;5.176;2023-05-29T13:25:29;7.30;;;2.65;;
36411;SDS011;22445;52.100;5.176;2023-05-29T13:27:54;9.48;;;2.28;;
36411;SDS011;22445;52.100;5.176;2023-05-29T13:30:20;6.78;;;2.72;;
36411;SDS011;22445;52.100;5.176;2023-05-29T13:32:47;7.30;;;2.83;;
36411;SDS011;22445;52.100;5.176;2023-05-29T13:35:13;6.38;;;2.38;;
36411;SDS011;22445;52.100;5.176;2023-05-29T13:37:38;9.07;;;2.40;;
36411;SDS011;22445;52.100;5.176;2023-05-29T13:40:05;9.38;;;3.25;;
36411;SDS011;22445;52.100;5.176;2023-05-29T13:42:32;7.40;;;2.78;;
36411;SDS011;22445;52.100;5.176;2023-05-29T13:44:57;7.50;;;2.53;;
36411;SDS011;22445;52.100;5.176;2023-05-29T13:47:23;6.75;;;2.45;;
36411;SDS011;22445;52.100;5.176;2023-05-29T13:49:49;7.70;;;2.72;;
36411;SDS011;22445;52.100;5.176;2023-05-29T13:52:15;10.70;;;2.95;;
36411;SDS011;22445;52.100;5.176;2023-05-29T13:54:42;9.25;;;2.75;;
36411;SDS011;22445;52.100;5.176;2023-05-29T13:57:08;8.30;;;2.33;;
36411;SDS011;22445;52.100;5.176;2023-05-29T13:59:34;9.00;;;2.40;;
36411;SDS011;22445;52.100;5.176;2023-05-29T14:02:00;8.02;;;2.35;;
36411;SDS011;22445;52.100;5.176;2023-05-29T14:04:26;7.30;;;2.92;;
36411;SDS011;22445;52.100;5.176;2023-05-29T14:06:52;6.18;;;2.83;;
36411;SDS011;22445;52.100;5.176;2023-05-29T14:09:18;8.43;;;2.88;;
36411;SDS011;22445;52.100;5.176;2023-05-29T14:11:51;9.32;;;2.78;;
36411;SDS011;22445;52.100;5.176;2023-05-29T14:14:18;8.02;;;2.50;;
36411;SDS011;22445;52.100;5.176;2023-05-29T14:16:43;5.40;;;2.08;;
36411;SDS011;22445;52.100;5.176;2023-05-29T14:19:09;10.05;;;2.50;;
36411;SDS011;22445;52.100;5.176;2023-05-29T14:21:35;7.75;;;2.25;;
36411;SDS011;22445;52.100;5.176;2023-05-29T14:24:01;7.50;;;2.75;;
36411;SDS011;22445;52.100;5.176;2023-05-29T14:26:26;6.07;;;2.42;;
36411;SDS011;22445;52.100;5.176;2023-05-29T14:28:52;8.52;;;2.72;;
36411;SDS011;22445;52.100;5.176;2023-05-29T14:31:17;7.60;;;2.53;;
36411;SDS011;22445;52.100;5.176;2023-05-29T14:33:43;11.10;;;2.70;;
36411;SDS011;22445;52.100;5.176;2023-05-29T14:36:08;7.30;;;2.45;;
36411;SDS011;22445;52.100;5.176;2023-05-29T14:38:34;6.10;;;2.15;;
36411;SDS011;22445;52.100;5.176;2023-05-29T14:41:01;9.15;;;2.85;;
36411;SDS011;22445;52.100;5.176;2023-05-29T14:43:27;7.22;;;2.72;;
36411;SDS011;22445;52.100;5.176;2023-05-29T14:45:53;8.82;;;3.05;;
36411;SDS011;22445;52.100;5.176;2023-05-29T14:48:19;5.90;;;2.72;;
36411;SDS011;22445;52.100;5.176;2023-05-29T14:50:44;6.70;;;2.40;;
36411;SDS011;22445;52.100;5.176;2023-05-29T14:53:10;8.35;;;2.70;;
36411;SDS011;22445;52.100;5.176;2023-05-29T14:55:35;7.15;;;2.28;;
36411;SDS011;22445;52.100;5.176;2023-05-29T14:58:03;7.30;;;2.63;;
36411;SDS011;22445;52.100;5.176;2023-05-29T15:00:29;7.68;;;2.25;;
36411;SDS011;22445;52.100;5.176;2023-05-29T15:02:54;7.97;;;2.50;;